Time;durP1;ratioP1;P1;durP2;ratioP2;P2;SDS_P1;SDS_P2;PMS_P1;PMS_P2;Temp;Humidity;BMP_temperature;BMP_pressure;BME280_temperature;BME280_humidity;BME280_pressure;Samples;Min_cycle;Max_cycle;Signal;HPM_P1;HPM_P2
2021/07/30 00:00:10;;;;;;;5.80;3.35;;;15.50;99.90;;;;;;5048301;28;20394;-70
2021/07/30 00:02:35;;;;;;;6.40;3.50;;;15.40;99.90;;;;;;5048396;28;20394;-70
2021/07/30 00:05:01;;;;;;;5.68;3.30;;;15.40;99.90;;;;;;5047848;28;20044;-70
2021/07/30 00:07:29;;;;;;;6.03;3.60;;;15.40;99.90;;;;;;5047768;28;20601;-70
2021/07/30 00:09:55;;;;;;;7.10;3.22;;;15.40;99.90;;;;;;5048006;28;20441;-70
2021/07/30 00:12:20;;;;;;;6.80;3.08;;;15.40;99.90;;;;;;5046618;28;20108;-70
2021/07/30 00:14:50;;;;;;;6.72;3.25;;;15.40;99.90;;;;;;5028547;28;20672;-70
2021/07/30 00:17:16;;;;;;;5.90;3.35;;;15.40;99.90;;;;;;5048517;28;20049;-70
2021/07/30 00:19:42;;;;;;;6.25;3.20;;;15.40;99.90;;;;;;5046877;28;20043;-70
2021/07/30 00:22:07;;;;;;;5.20;3.13;;;15.40;99.90;;;;;;5047733;28;20028;-70
2021/07/30 00:24:35;;;;;;;6.03;3.03;;;15.40;99.90;;;;;;5047369;28;20025;-70
2021/07/30 00:27:03;;;;;;;5.50;3.17;;;15.30;99.90;;;;;;5047755;28;20025;-70
2021/07/30 00:29:29;;;;;;;5.32;3.50;;;15.40;99.90;;;;;;5047061;28;20036;-70
2021/07/30 00:31:57;;;;;;;7.32;3.10;;;15.30;99.90;;;;;;5046351;28;20029;-69
2021/07/30 00:34:25;;;;;;;4.97;3.20;;;15.30;99.90;;;;;;5029949;28;20036;-70
2021/07/30 00:36:50;;;;;;;6.15;3.42;;;15.30;99.90;;;;;;5048872;28;20044;-70
2021/07/30 00:39:16;;;;;;;6.82;3.30;;;15.30;99.90;;;;;;5047444;28;20130;-70
2021/07/30 00:41:46;;;;;;;6.13;3.20;;;15.30;99.90;;;;;;5034739;28;20047;-70
2021/07/30 00:44:14;;;;;;;6.00;3.03;;;15.30;99.90;;;;;;5047285;28;20167;-70
2021/07/30 00:46:40;;;;;;;7.78;3.67;;;15.30;99.90;;;;;;5047290;28;20092;-70
2021/07/30 00:49:07;;;;;;;6.60;3.45;;;15.20;99.90;;;;;;5047976;28;20169;-70
2021/07/30 00:51:36;;;;;;;7.20;3.78;;;15.20;99.90;;;;;;5046836;28;20111;-70
2021/07/30 00:54:04;;;;;;;7.35;3.35;;;15.20;99.90;;;;;;5029665;28;20112;-70
2021/07/30 00:56:30;;;;;;;6.28;2.95;;;15.20;99.90;;;;;;5011705;28;20120;-70
2021/07/30 00:58:58;;;;;;;7.15;3.50;;;15.20;99.90;;;;;;5045391;28;20053;-70
2021/07/30 01:01:26;;;;;;;6.22;3.80;;;15.20;99.90;;;;;;5045508;28;20063;-70
2021/07/30 01:03:52;;;;;;;6.03;3.50;;;15.10;99.90;;;;;;5045918;28;20025;-70
2021/07/30 01:06:17;;;;;;;8.25;3.38;;;15.10;99.90;;;;;;5047288;28;20040;-70
2021/07/30 01:08:43;;;;;;;7.20;3.50;;;15.10;99.90;;;;;;5029442;28;20119;-70
2021/07/30 01:11:13;;;;;;;6.70;3.40;;;15.10;99.90;;;;;;5029840;28;20037;-69
2021/07/30 01:13:39;;;;;;;6.35;3.45;;;15.10;99.90;;;;;;5029251;28;20037;-69
2021/07/30 01:16:04;;;;;;;5.32;3.30;;;15.00;99.90;;;;;;5046223;28;20035;-70
2021/07/30 01:18:30;;;;;;;6.97;3.30;;;15.00;99.90;;;;;;5046127;28;20041;-70
2021/07/30 01:21:16;;;;;;;6.68;3.63;;;15.00;99.90;;;;;;5028647;28;20021;-70
2021/07/30 01:23:47;;;;;;;6.55;3.22;;;15.00;99.90;;;;;;5061792;28;20033;-70
2021/07/30 01:26:14;;;;;;;9.00;3.25;;;14.90;99.90;;;;;;5062121;28;20060;-70
2021/07/30 01:28:39;;;;;;;6.13;3.20;;;14.90;99.90;;;;;;5011682;28;20101;-70
2021/07/30 01:31:05;;;;;;;8.32;3.40;;;14.90;99.90;;;;;;5046861;28;20033;-70
2021/07/30 01:33:31;;;;;;;4.88;3.10;;;14.90;99.90;;;;;;5044254;28;20044;-70
2021/07/30 01:35:59;;;;;;;6.30;3.40;;;14.90;99.90;;;;;;5046961;28;20071;-70
2021/07/30 01:38:26;;;;;;;6.53;3.35;;;14.90;99.90;;;;;;5045940;28;20044;-70
2021/07/30 01:40:52;;;;;;;6.47;3.53;;;14.90;99.90;;;;;;5046961;28;20038;-70
2021/07/30 01:43:18;;;;;;;5.78;3.40;;;14.90;99.90;;;;;;5010857;28;20025;-70
2021/07/30 01:45:43;;;;;;;6.75;3.70;;;14.90;99.90;;;;;;5047497;28;20099;-70
2021/07/30 01:48:09;;;;;;;6.03;3.50;;;14.80;99.90;;;;;;5045940;28;20039;-69
2021/07/30 01:50:37;;;;;;;7.18;3.45;;;14.80;99.90;;;;;;5046611;28;20114;-70
2021/07/30 01:53:02;;;;;;;7.25;3.65;;;14.80;99.90;;;;;;5045567;28;20025;-70
2021/07/30 01:55:33;;;;;;;5.95;3.42;;;14.80;99.90;;;;;;5027994;28;20040;-70
2021/07/30 01:57:58;;;;;;;6.03;3.42;;;14.70;99.90;;;;;;5045850;28;20115;-69
2021/07/30 02:00:26;;;;;;;6.43;3.45;;;14.80;99.90;;;;;;5045972;28;20091;-70
2021/07/30 02:02:52;;;;;;;6.30;3.30;;;14.70;99.90;;;;;;5046618;28;20542;-69
2021/07/30 02:05:20;;;;;;;6.80;3.28;;;14.70;99.90;;;;;;5045885;28;20070;-70
2021/07/30 02:07:48;;;;;;;6.45;3.53;;;14.70;99.90;;;;;;5048798;28;20048;-70
2021/07/30 02:10:16;;;;;;;6.80;3.30;;;14.70;99.90;;;;;;5050615;28;20043;-70
2021/07/30 02:15:26;;;;;;;7.68;4.05;;;14.60;99.90;;;;;;5049807;28;20072;-70
2021/07/30 02:17:51;;;;;;;5.88;3.42;;;14.60;99.90;;;;;;5050363;28;20056;-70
2021/07/30 02:20:17;;;;;;;7.32;3.40;;;14.50;99.90;;;;;;5050265;28;20049;-70
2021/07/30 02:22:42;;;;;;;7.38;3.67;;;14.50;99.90;;;;;;5031777;28;20106;-70
2021/07/30 02:25:13;;;;;;;8.13;3.70;;;14.50;99.90;;;;;;5051005;28;20033;-70
2021/07/30 02:27:39;;;;;;;7.43;3.83;;;14.50;99.90;;;;;;5046941;28;20035;-70
2021/07/30 02:30:05;;;;;;;7.25;3.50;;;14.50;99.90;;;;;;5066398;28;20028;-70
2021/07/30 02:32:30;;;;;;;8.00;3.55;;;14.50;99.90;;;;;;5049990;28;20352;-70
2021/07/30 02:34:56;;;;;;;6.90;3.50;;;14.50;99.90;;;;;;5049699;28;20067;-70
2021/07/30 02:37:22;;;;;;;5.32;3.20;;;14.40;99.90;;;;;;5049481;28;20032;-70
2021/07/30 02:39:47;;;;;;;6.90;3.70;;;14.40;99.90;;;;;;5048011;28;20076;-70
2021/07/30 02:42:13;;;;;;;6.65;3.20;;;14.40;99.90;;;;;;5031187;28;20104;-70
2021/07/30 02:44:46;;;;;;;7.22;3.40;;;14.40;99.90;;;;;;5049162;28;20904;-70
2021/07/30 02:47:11;;;;;;;7.15;3.55;;;14.30;99.90;;;;;;5049744;28;20032;-70
2021/07/30 02:49:37;;;;;;;6.15;3.67;;;14.40;99.90;;;;;;5049302;28;20032;-70
2021/07/30 02:52:05;;;;;;;7.68;4.03;;;14.30;99.90;;;;;;5016896;28;20033;-70
2021/07/30 02:54:31;;;;;;;7.47;4.10;;;14.30;99.90;;;;;;5048985;28;20033;-70
2021/07/30 02:56:56;;;;;;;6.78;3.78;;;14.20;99.90;;;;;;5049769;28;20049;-70
2021/07/30 02:59:22;;;;;;;7.72;3.70;;;14.20;99.90;;;;;;5031947;28;20496;-70
2021/07/30 03:01:50;;;;;;;5.95;3.35;;;14.20;99.90;;;;;;5050643;28;20114;-70
2021/07/30 03:04:18;;;;;;;5.50;3.38;;;14.20;99.90;;;;;;5065457;28;20708;-70
2021/07/30 03:06:46;;;;;;;6.28;3.50;;;14.20;99.90;;;;;;5049315;28;20168;-70
2021/07/30 03:09:11;;;;;;;8.40;3.67;;;14.10;99.90;;;;;;5048751;28;20024;-70
2021/07/30 03:11:39;;;;;;;5.97;3.38;;;14.10;99.90;;;;;;5048957;28;20040;-70
2021/07/30 03:14:05;;;;;;;5.10;3.20;;;14.10;99.90;;;;;;5048904;28;20044;-70
2021/07/30 03:16:30;;;;;;;4.70;3.45;;;14.10;99.90;;;;;;5030242;28;20037;-70
2021/07/30 03:18:56;;;;;;;6.32;3.60;;;14.10;99.90;;;;;;5030672;28;20465;-71
2021/07/30 03:21:22;;;;;;;6.15;3.50;;;14.10;99.90;;;;;;5029798;28;20036;-70
2021/07/30 03:23:47;;;;;;;5.43;3.53;;;14.20;99.90;;;;;;5049332;28;20028;-70
2021/07/30 03:26:13;;;;;;;8.65;3.83;;;14.20;99.90;;;;;;5048673;28;20457;-70
2021/07/30 03:28:38;;;;;;;6.35;3.55;;;14.20;99.90;;;;;;5048061;28;20044;-70
2021/07/30 03:31:04;;;;;;;6.55;3.60;;;14.10;99.90;;;;;;5048212;28;20036;-70
2021/07/30 03:33:30;;;;;;;6.43;3.60;;;14.10;99.90;;;;;;5031242;28;20103;-70
2021/07/30 03:35:57;;;;;;;6.28;3.25;;;14.10;99.90;;;;;;5030825;28;20056;-70
2021/07/30 03:38:23;;;;;;;7.20;3.50;;;14.10;99.90;;;;;;5048887;28;20024;-70
2021/07/30 03:40:51;;;;;;;6.80;3.28;;;14.10;99.90;;;;;;5049421;28;20057;-70
2021/07/30 03:43:16;;;;;;;6.80;3.60;;;14.10;99.90;;;;;;5051116;28;20029;-70
2021/07/30 03:45:42;;;;;;;6.57;3.80;;;14.10;99.90;;;;;;5049928;28;20040;-70
2021/07/30 03:48:12;;;;;;;6.88;3.58;;;14.00;99.90;;;;;;5048110;28;20021;-70
2021/07/30 03:50:38;;;;;;;5.70;3.53;;;14.00;99.90;;;;;;5048012;28;20032;-70
2021/07/30 03:53:04;;;;;;;6.03;3.38;;;14.00;99.90;;;;;;5063004;28;20033;-70
2021/07/30 03:55:32;;;;;;;6.43;3.47;;;14.10;99.90;;;;;;5062778;28;20043;-70
2021/07/30 03:57:58;;;;;;;8.18;3.65;;;14.00;99.90;;;;;;5048862;28;20066;-70
2021/07/30 04:00:24;;;;;;;6.25;3.40;;;14.00;99.90;;;;;;5015130;28;20127;-70
2021/07/30 04:02:52;;;;;;;7.57;3.42;;;14.00;99.90;;;;;;5047800;28;20029;-70
2021/07/30 04:05:17;;;;;;;6.45;3.40;;;14.00;99.90;;;;;;5029696;28;20029;-70
2021/07/30 04:07:43;;;;;;;8.00;3.90;;;14.00;99.90;;;;;;5046104;28;20481;-70
2021/07/30 04:10:11;;;;;;;6.85;3.60;;;14.00;99.90;;;;;;5048292;28;20450;-70
2021/07/30 04:12:37;;;;;;;8.00;3.65;;;13.90;99.90;;;;;;5048436;28;20113;-70
2021/07/30 04:15:05;;;;;;;8.52;3.65;;;13.90;99.90;;;;;;5048387;28;20045;-70
2021/07/30 04:17:33;;;;;;;5.07;3.30;;;13.90;99.90;;;;;;5063227;28;20036;-70
2021/07/30 04:19:58;;;;;;;6.63;3.53;;;14.00;99.90;;;;;;5046957;28;20045;-70
2021/07/30 04:22:26;;;;;;;7.32;3.55;;;14.00;99.90;;;;;;5047581;28;20402;-70
2021/07/30 04:24:52;;;;;;;7.57;3.97;;;14.00;99.90;;;;;;5047468;28;20112;-70
2021/07/30 04:27:18;;;;;;;5.70;3.38;;;14.00;99.90;;;;;;5029909;28;20033;-71
2021/07/30 04:29:43;;;;;;;5.28;3.45;;;14.00;99.90;;;;;;5046959;28;20446;-70
2021/07/30 04:32:11;;;;;;;6.75;3.55;;;14.00;99.90;;;;;;5045722;28;20577;-70
2021/07/30 04:34:40;;;;;;;7.32;3.70;;;14.00;99.90;;;;;;5062909;28;20405;-70
2021/07/30 04:37:06;;;;;;;7.30;4.20;;;14.00;99.90;;;;;;5029866;28;20033;-71
2021/07/30 04:39:32;;;;;;;6.55;3.63;;;14.00;99.90;;;;;;5030117;28;20032;-70
2021/07/30 04:41:57;;;;;;;8.02;3.58;;;14.00;99.90;;;;;;5033782;28;20072;-70
2021/07/30 04:44:28;;;;;;;6.45;3.67;;;14.00;99.90;;;;;;5046317;28;20470;-70
2021/07/30 04:46:53;;;;;;;6.75;4.10;;;14.00;99.90;;;;;;5060973;28;20199;-70
2021/07/30 04:49:19;;;;;;;7.20;3.65;;;14.00;99.90;;;;;;5047424;28;20120;-70
2021/07/30 04:51:44;;;;;;;7.10;3.88;;;14.00;99.90;;;;;;5047390;28;20667;-70
2021/07/30 04:54:12;;;;;;;6.30;3.63;;;14.00;99.90;;;;;;5028976;28;20056;-70
2021/07/30 04:56:42;;;;;;;7.07;3.67;;;14.10;99.90;;;;;;5047356;28;20028;-70
2021/07/30 04:59:10;;;;;;;6.82;3.90;;;14.10;99.90;;;;;;5044826;28;20495;-70
2021/07/30 05:01:41;;;;;;;7.05;3.70;;;14.10;99.90;;;;;;5046990;28;20032;-70
2021/07/30 05:04:10;;;;;;;6.00;3.83;;;14.10;99.90;;;;;;5047292;28;20781;-70
2021/07/30 05:06:36;;;;;;;7.13;3.72;;;14.10;99.90;;;;;;5028985;28;20088;-70
2021/07/30 05:09:01;;;;;;;6.40;3.90;;;14.10;99.90;;;;;;5028939;28;20570;-70
2021/07/30 05:11:29;;;;;;;6.40;3.85;;;14.10;99.90;;;;;;5047026;28;20515;-70
2021/07/30 05:13:55;;;;;;;6.78;4.00;;;14.10;99.90;;;;;;5061885;28;20039;-70
2021/07/30 05:16:23;;;;;;;6.97;3.58;;;14.20;99.90;;;;;;5047335;28;20037;-70
2021/07/30 05:18:53;;;;;;;6.75;3.92;;;14.20;99.90;;;;;;5026619;28;20037;-70
2021/07/30 05:21:19;;;;;;;8.70;3.90;;;14.20;99.90;;;;;;5028750;28;20032;-71
2021/07/30 05:23:45;;;;;;;6.28;4.43;;;14.30;99.90;;;;;;5046601;28;20043;-70
2021/07/30 05:26:10;;;;;;;6.95;3.83;;;14.30;99.90;;;;;;5027318;28;20167;-70
2021/07/30 05:28:38;;;;;;;6.00;3.80;;;14.40;99.90;;;;;;5046551;28;20025;-70
2021/07/30 05:31:07;;;;;;;8.48;4.20;;;14.40;99.90;;;;;;5028920;28;20024;-70
2021/07/30 05:33:36;;;;;;;5.60;3.70;;;14.40;99.90;;;;;;5045295;28;20128;-70
2021/07/30 05:36:03;;;;;;;6.38;4.13;;;14.50;99.90;;;;;;5060773;28;20039;-70
2021/07/30 05:38:32;;;;;;;7.68;4.30;;;14.50;99.90;;;;;;5044236;28;20454;-70
2021/07/30 05:40:57;;;;;;;7.15;4.20;;;14.60;99.90;;;;;;5046810;28;20927;-70
2021/07/30 05:43:25;;;;;;;7.38;4.10;;;14.60;99.90;;;;;;5046339;28;20032;-70
2021/07/30 05:45:58;;;;;;;6.82;4.00;;;14.70;99.90;;;;;;5047728;28;20037;-70
2021/07/30 05:48:26;;;;;;;8.52;4.43;;;14.70;99.90;;;;;;5044664;28;20047;-70
2021/07/30 05:50:54;;;;;;;6.22;4.15;;;14.80;99.90;;;;;;5045229;28;20037;-68
2021/07/30 05:53:20;;;;;;;7.10;4.20;;;14.80;99.90;;;;;;5046947;28;20078;-68
2021/07/30 05:55:45;;;;;;;7.63;4.25;;;14.90;99.90;;;;;;5045937;28;20625;-68
2021/07/30 05:58:11;;;;;;;7.25;4.55;;;15.00;99.90;;;;;;5045600;28;20077;-70
2021/07/30 06:00:36;;;;;;;6.53;4.22;;;15.00;99.90;;;;;;5046567;28;20114;-70
2021/07/30 06:03:05;;;;;;;7.75;4.18;;;15.10;99.90;;;;;;5045356;28;20818;-68
2021/07/30 06:05:32;;;;;;;7.13;4.63;;;15.10;99.90;;;;;;5062446;28;20036;-68
2021/07/30 06:07:59;;;;;;;6.35;4.00;;;15.10;99.90;;;;;;5046134;28;20029;-72
2021/07/30 06:10:25;;;;;;;7.10;4.00;;;15.20;99.90;;;;;;5011710;28;20603;-70
2021/07/30 06:12:53;;;;;;;6.82;3.80;;;15.30;99.90;;;;;;5021877;28;20029;-71
2021/07/30 06:15:24;;;;;;;8.20;4.55;;;15.30;99.90;;;;;;5045427;28;20556;-71
2021/07/30 06:17:53;;;;;;;6.78;4.30;;;15.40;99.90;;;;;;5027676;28;20166;-71
2021/07/30 06:20:21;;;;;;;6.38;4.07;;;15.40;99.90;;;;;;5044052;28;20064;-71
2021/07/30 06:22:47;;;;;;;6.38;4.10;;;15.50;99.90;;;;;;5060851;28;20016;-71
2021/07/30 06:25:13;;;;;;;6.90;4.20;;;15.60;99.90;;;;;;5026564;28;20051;-71
2021/07/30 06:27:38;;;;;;;6.70;3.75;;;15.60;99.90;;;;;;5060257;28;20028;-71
2021/07/30 06:30:07;;;;;;;7.18;4.38;;;15.70;99.90;;;;;;5028032;28;20032;-71
2021/07/30 06:32:34;;;;;;;7.68;4.10;;;15.70;99.90;;;;;;5044365;28;20036;-71
2021/07/30 06:34:59;;;;;;;6.75;4.22;;;15.80;99.90;;;;;;5043747;28;20024;-71
2021/07/30 06:37:25;;;;;;;7.88;4.00;;;15.90;99.90;;;;;;5024967;28;20045;-71
2021/07/30 06:39:53;;;;;;;6.68;4.10;;;15.90;99.90;;;;;;5031115;28;20032;-71
2021/07/30 06:42:18;;;;;;;5.80;4.00;;;16.00;99.90;;;;;;5011477;28;20366;-71
2021/07/30 06:44:52;;;;;;;9.35;6.13;;;16.10;99.90;;;;;;5045043;28;20021;-73
2021/07/30 06:47:22;;;;;;;6.47;4.38;;;16.10;99.90;;;;;;5043903;28;20029;-71
2021/07/30 06:49:48;;;;;;;8.07;5.38;;;16.20;99.90;;;;;;5027203;28;20063;-71
2021/07/30 06:52:14;;;;;;;6.00;3.75;;;16.30;99.90;;;;;;5027152;28;20037;-71
2021/07/30 06:54:41;;;;;;;7.13;3.90;;;16.30;99.90;;;;;;5048111;28;20044;-71
2021/07/30 06:57:06;;;;;;;6.95;3.97;;;16.40;99.90;;;;;;5064941;28;20140;-71
2021/07/30 06:59:32;;;;;;;6.38;3.78;;;16.50;99.90;;;;;;5030490;28;20049;-71
2021/07/30 07:02:02;;;;;;;6.25;3.95;;;16.60;99.90;;;;;;5048323;28;20036;-71
2021/07/30 07:04:27;;;;;;;6.10;3.75;;;16.60;99.90;;;;;;5014234;28;20020;-71
2021/07/30 07:06:53;;;;;;;6.47;3.90;;;16.70;99.90;;;;;;5031039;28;20044;-71
2021/07/30 07:09:19;;;;;;;6.85;3.83;;;16.80;99.90;;;;;;5063835;28;20047;-71
2021/07/30 07:11:45;;;;;;;6.60;3.75;;;16.90;99.90;;;;;;5063341;28;20052;-71
2021/07/30 07:14:13;;;;;;;6.75;3.80;;;17.00;99.90;;;;;;5014397;28;20025;-71
2021/07/30 07:16:44;;;;;;;7.80;3.78;;;17.00;99.90;;;;;;5030788;28;20148;-71
2021/07/30 07:19:10;;;;;;;6.25;3.80;;;17.00;99.90;;;;;;5047975;28;20045;-71
2021/07/30 07:21:39;;;;;;;7.97;4.00;;;17.10;99.90;;;;;;5031265;28;20462;-71
2021/07/30 07:24:07;;;;;;;6.22;3.90;;;17.20;99.90;;;;;;5049190;28;20025;-72
2021/07/30 07:26:37;;;;;;;5.57;3.90;;;17.20;99.90;;;;;;5064167;28;20025;-72
2021/07/30 07:29:04;;;;;;;6.03;3.83;;;17.20;99.90;;;;;;5046760;28;20605;-71
2021/07/30 07:31:29;;;;;;;6.45;3.92;;;17.30;99.90;;;;;;4999407;28;20063;-71
2021/07/30 07:33:55;;;;;;;6.68;4.10;;;17.40;99.90;;;;;;5046625;28;20481;-72
2021/07/30 07:36:22;;;;;;;5.50;3.85;;;17.40;99.90;;;;;;5030049;28;20875;-71
2021/07/30 07:38:53;;;;;;;7.72;4.85;;;17.50;99.90;;;;;;5031048;28;20394;-71
2021/07/30 07:41:24;;;;;;;7.93;4.40;;;17.60;99.90;;;;;;5046980;28;20033;-71
2021/07/30 07:43:50;;;;;;;6.60;4.20;;;17.60;99.90;;;;;;5048122;28;20052;-71
2021/07/30 07:46:16;;;;;;;7.53;4.22;;;17.70;99.90;;;;;;5062504;28;20063;-72
2021/07/30 07:48:41;;;;;;;6.85;4.10;;;17.80;99.90;;;;;;5047596;28;20033;-71
2021/07/30 07:51:07;;;;;;;6.43;4.07;;;17.80;99.90;;;;;;5062997;28;20021;-71
2021/07/30 07:53:32;;;;;;;7.72;4.30;;;18.00;99.90;;;;;;5047208;28;20033;-72
2021/07/30 07:56:08;;;;;;;8.35;4.30;;;18.00;99.90;;;;;;5063126;28;20087;-71
2021/07/30 07:58:33;;;;;;;7.57;3.97;;;18.20;99.90;;;;;;5030148;28;20711;-71
2021/07/30 08:00:59;;;;;;;6.65;4.25;;;18.40;99.90;;;;;;5062288;28;20139;-71
2021/07/30 08:03:25;;;;;;;7.22;4.30;;;18.60;99.90;;;;;;5046658;28;20031;-71
2021/07/30 08:05:51;;;;;;;5.90;4.03;;;18.70;99.90;;;;;;5061771;28;20461;-71
2021/07/30 08:08:16;;;;;;;6.68;3.70;;;18.80;99.90;;;;;;5046952;28;20035;-71
2021/07/30 08:10:42;;;;;;;6.82;3.78;;;19.00;99.90;;;;;;5029716;28;20037;-71
2021/07/30 08:13:08;;;;;;;6.22;3.72;;;19.20;99.90;;;;;;5029501;28;20501;-71
2021/07/30 08:15:35;;;;;;;7.70;3.65;;;19.30;99.90;;;;;;5047505;28;20080;-71
2021/07/30 08:18:01;;;;;;;7.10;3.90;;;19.40;99.90;;;;;;5047209;28;21907;-71
2021/07/30 08:20:29;;;;;;;6.15;3.60;;;19.50;99.90;;;;;;5046355;28;20043;-71
2021/07/30 08:22:57;;;;;;;6.47;3.60;;;19.60;99.90;;;;;;5029336;28;20079;-71
2021/07/30 08:25:23;;;;;;;8.25;3.60;;;19.70;99.90;;;;;;5027831;28;20051;-69
2021/07/30 08:27:51;;;;;;;7.20;3.90;;;19.80;99.90;;;;;;5047500;28;20033;-69
2021/07/30 08:30:16;;;;;;;7.30;3.60;;;20.00;99.90;;;;;;5046190;28;20599;-69
2021/07/30 08:32:44;;;;;;;6.05;3.55;;;20.00;99.90;;;;;;5011189;28;20067;-69
2021/07/30 08:35:15;;;;;;;5.88;3.53;;;20.00;99.90;;;;;;5011610;28;20040;-70
2021/07/30 08:37:41;;;;;;;6.68;3.78;;;20.10;99.90;;;;;;5029621;28;20028;-69
2021/07/30 08:40:07;;;;;;;6.65;2.95;;;20.20;99.90;;;;;;5046269;28;20110;-69
2021/07/30 08:42:37;;;;;;;9.38;3.53;;;20.30;98.10;;;;;;5029013;28;20024;-70
2021/07/30 08:45:06;;;;;;;7.22;3.10;;;20.30;99.90;;;;;;5030254;28;20033;-70
2021/07/30 08:47:32;;;;;;;6.60;3.30;;;20.30;95.10;;;;;;5046337;28;20662;-69
2021/07/30 08:50:00;;;;;;;6.72;3.38;;;20.40;99.90;;;;;;5047541;28;20028;-70
2021/07/30 08:52:39;;;;;;;6.20;3.22;;;20.40;94.80;;;;;;5028091;28;21732;-69
2021/07/30 08:55:11;;;;;;;5.50;3.20;;;20.50;98.00;;;;;;5028698;28;20025;-69
2021/07/30 08:57:38;;;;;;;5.82;3.20;;;20.60;89.00;;;;;;5027756;28;20059;-69
2021/07/30 09:00:12;;;;;;;6.55;3.33;;;20.60;97.20;;;;;;5027904;28;20123;-69
2021/07/30 09:02:38;;;;;;;6.00;3.10;;;20.70;96.00;;;;;;5045708;28;21896;-70
2021/07/30 09:05:42;;;;;;;7.00;3.20;;;20.70;97.00;;;;;;5010337;28;20021;-69
2021/07/30 09:08:10;;;;;;;6.13;3.10;;;20.70;86.50;;;;;;5044119;28;20049;-69
2021/07/30 09:10:36;;;;;;;7.30;3.45;;;20.70;81.70;;;;;;5045687;28;20502;-70
2021/07/30 09:13:20;;;;;;;7.20;3.85;;;20.70;84.20;;;;;;5046509;28;20039;-70
2021/07/30 09:16:07;;;;;;;6.95;3.13;;;20.90;81.60;;;;;;5045865;28;20033;-69
2021/07/30 09:18:44;;;;;;;6.40;3.25;;;20.90;81.00;;;;;;5059574;28;20033;-70
2021/07/30 09:21:21;;;;;;;6.72;3.40;;;20.90;82.10;;;;;;5061389;28;20029;-69
2021/07/30 09:23:49;;;;;;;5.32;2.95;;;20.80;81.90;;;;;;5046258;28;20461;-69
2021/07/30 09:26:50;;;;;;;7.78;3.28;;;21.00;87.50;;;;;;5026478;28;20025;-70
2021/07/30 09:29:20;;;;;;;5.40;3.08;;;21.00;85.70;;;;;;5045647;28;20131;-69
2021/07/30 09:31:53;;;;;;;5.90;3.28;;;21.10;83.00;;;;;;5028122;28;20040;-70
2021/07/30 09:34:38;;;;;;;6.38;3.15;;;21.20;84.30;;;;;;5028812;28;20170;-70
2021/07/30 09:37:08;;;;;;;5.43;3.10;;;21.30;91.10;;;;;;5046537;28;20094;-70
2021/07/30 09:39:36;;;;;;;6.38;3.45;;;21.40;86.10;;;;;;5027456;28;20032;-70
2021/07/30 09:42:14;;;;;;;6.95;3.72;;;21.50;90.90;;;;;;5060099;28;20025;-70
2021/07/30 09:45:02;;;;;;;6.57;3.50;;;21.50;82.70;;;;;;5045578;28;20036;-70
2021/07/30 09:47:34;;;;;;;5.03;3.25;;;21.70;93.90;;;;;;5045350;28;20029;-71
2021/07/30 09:50:04;;;;;;;6.90;3.47;;;21.90;94.40;;;;;;5027992;28;20098;-70
2021/07/30 09:52:33;;;;;;;7.20;3.60;;;21.90;82.60;;;;;;5045784;28;20183;-70
2021/07/30 09:55:17;;;;;;;7.65;3.65;;;22.10;91.50;;;;;;5045767;28;20289;-70
2021/07/30 09:57:43;;;;;;;7.05;3.67;;;22.30;91.60;;;;;;5028102;28;20036;-69
2021/07/30 10:00:10;;;;;;;5.20;3.40;;;22.20;83.60;;;;;;5027668;28;20534;-69
2021/07/30 10:02:37;;;;;;;5.95;3.60;;;22.30;85.80;;;;;;5045820;28;20116;-69
2021/07/30 10:05:06;;;;;;;9.32;3.85;;;22.30;82.20;;;;;;5043114;28;20028;-70
2021/07/30 10:07:36;;;;;;;6.20;3.63;;;22.00;78.00;;;;;;5027706;28;20414;-69
2021/07/30 10:10:26;;;;;;;6.30;3.58;;;22.20;81.30;;;;;;5045420;28;20037;-69
2021/07/30 10:12:57;;;;;;;7.28;4.00;;;22.10;76.10;;;;;;5017995;28;20032;-70
2021/07/30 10:15:26;;;;;;;6.07;3.78;;;22.20;82.10;;;;;;5027429;28;20454;-69
2021/07/30 10:17:56;;;;;;;5.30;3.40;;;22.30;84.20;;;;;;5027559;28;20055;-69
2021/07/30 10:20:23;;;;;;;6.72;3.65;;;22.40;77.60;;;;;;5042962;28;20179;-71
2021/07/30 10:23:07;;;;;;;6.07;3.58;;;22.30;79.60;;;;;;5045087;28;20025;-71
2021/07/30 10:25:37;;;;;;;5.15;3.50;;;22.30;83.90;;;;;;5043949;28;20445;-70
2021/07/30 10:28:18;;;;;;;7.13;3.58;;;22.10;78.30;;;;;;5029961;28;20394;-70
2021/07/30 10:31:05;;;;;;;6.93;3.90;;;22.20;75.30;;;;;;5050106;28;20111;-70
2021/07/30 10:33:30;;;;;;;6.90;3.80;;;22.10;74.30;;;;;;5049253;28;20155;-71
2021/07/30 10:36:00;;;;;;;6.28;3.65;;;22.20;79.70;;;;;;5049269;28;20033;-70
2021/07/30 10:38:25;;;;;;;6.95;3.80;;;22.30;82.30;;;;;;5015708;28;20099;-71
2021/07/30 10:41:07;;;;;;;6.55;3.33;;;22.50;90.40;;;;;;5031185;28;20078;-71
2021/07/30 10:43:51;;;;;;;6.47;3.60;;;22.60;85.60;;;;;;5048783;28;20047;-71
2021/07/30 10:46:21;;;;;;;5.97;3.70;;;22.80;80.90;;;;;;5024309;28;20600;-70
2021/07/30 10:48:47;;;;;;;7.50;3.73;;;22.90;78.80;;;;;;5030167;28;20734;-70
2021/07/30 10:51:22;;;;;;;7.18;3.50;;;23.00;83.10;;;;;;5047750;28;20273;-70
2021/07/30 10:53:57;;;;;;;7.72;3.70;;;23.10;81.40;;;;;;5048241;28;20021;-71
2021/07/30 10:56:23;;;;;;;6.45;3.50;;;23.00;73.00;;;;;;5047979;28;20091;-70
2021/07/30 10:58:57;;;;;;;6.70;4.13;;;23.00;73.50;;;;;;5049229;28;20505;-70
2021/07/30 11:01:29;;;;;;;6.07;3.65;;;23.00;74.90;;;;;;5048042;28;20040;-71
2021/07/30 11:03:56;;;;;;;6.10;3.63;;;23.20;84.40;;;;;;5048628;28;20052;-71
2021/07/30 11:06:37;;;;;;;6.05;3.63;;;23.20;73.00;;;;;;5048578;28;20028;-71
2021/07/30 11:09:03;;;;;;;6.80;3.85;;;23.30;76.80;;;;;;5047878;28;20099;-70
2021/07/30 11:11:47;;;;;;;6.32;3.80;;;23.10;74.90;;;;;;5047458;28;20102;-70
2021/07/30 11:14:13;;;;;;;6.78;3.70;;;23.20;73.80;;;;;;5048331;28;20079;-70
2021/07/30 11:16:39;;;;;;;6.50;3.55;;;23.10;74.90;;;;;;5048488;28;20573;-70
2021/07/30 11:19:05;;;;;;;6.25;3.60;;;23.10;77.20;;;;;;5049555;28;20036;-68
2021/07/30 11:21:33;;;;;;;5.93;3.95;;;23.20;80.20;;;;;;5047827;28;20785;-68
2021/07/30 11:23:59;;;;;;;5.72;3.65;;;23.20;77.00;;;;;;5046709;28;20094;-71
2021/07/30 11:26:24;;;;;;;7.03;3.95;;;23.20;76.20;;;;;;5048200;28;20029;-71
2021/07/30 11:28:55;;;;;;;5.68;3.67;;;23.40;79.20;;;;;;5064261;28;20025;-71
2021/07/30 11:31:21;;;;;;;7.38;3.67;;;23.50;79.50;;;;;;5030131;28;20051;-72
2021/07/30 11:33:47;;;;;;;6.32;3.50;;;23.50;74.90;;;;;;5064258;28;20032;-71
2021/07/30 11:36:13;;;;;;;6.63;3.85;;;23.70;75.00;;;;;;4999897;28;20029;-68
2021/07/30 11:38:55;;;;;;;8.60;3.70;;;23.70;71.10;;;;;;5028520;28;20086;-70
2021/07/30 11:41:23;;;;;;;6.90;3.95;;;23.70;69.10;;;;;;5045301;28;20024;-70
2021/07/30 11:44:02;;;;;;;6.28;3.88;;;23.80;72.40;;;;;;5047401;28;20120;-70
2021/07/30 11:46:29;;;;;;;5.68;3.67;;;23.80;70.80;;;;;;5047650;28;20052;-71
2021/07/30 11:48:57;;;;;;;7.15;3.70;;;23.80;72.70;;;;;;5047214;28;20020;-71
2021/07/30 11:51:23;;;;;;;7.07;3.50;;;23.80;68.20;;;;;;5030208;28;20116;-70
2021/07/30 11:53:52;;;;;;;6.80;3.83;;;23.80;71.90;;;;;;5015156;28;20024;-72
2021/07/30 11:56:20;;;;;;;5.07;3.80;;;23.80;71.70;;;;;;5063364;28;20033;-70
2021/07/30 11:58:56;;;;;;;9.10;3.88;;;23.80;69.00;;;;;;5047306;28;20043;-71
2021/07/30 12:01:21;;;;;;;6.05;3.70;;;23.70;70.20;;;;;;5046670;28;20021;-71
2021/07/30 12:04:10;;;;;;;5.60;3.72;;;23.50;66.90;;;;;;5046934;28;20032;-70
2021/07/30 12:06:39;;;;;;;7.15;4.00;;;23.40;67.50;;;;;;5046749;28;20070;-71
2021/07/30 12:09:05;;;;;;;5.20;3.70;;;23.40;69.30;;;;;;5061970;28;20467;-71
2021/07/30 12:11:32;;;;;;;6.85;3.90;;;23.40;72.50;;;;;;5031524;28;20079;-71
2021/07/30 12:13:58;;;;;;;5.93;3.65;;;23.30;71.10;;;;;;5003951;28;20538;-71
2021/07/30 12:16:26;;;;;;;6.10;3.78;;;23.30;69.80;;;;;;5046763;28;20031;-71
2021/07/30 12:18:58;;;;;;;5.60;3.65;;;23.40;74.00;;;;;;5028826;28;20056;-71
2021/07/30 12:21:24;;;;;;;5.78;3.33;;;23.60;74.50;;;;;;5028221;28;20029;-71
2021/07/30 12:23:52;;;;;;;6.35;3.67;;;23.70;71.10;;;;;;5046711;28;20033;-71
2021/07/30 12:26:34;;;;;;;6.47;3.88;;;23.80;68.00;;;;;;5045866;28;20051;-71
2021/07/30 12:28:59;;;;;;;5.82;3.65;;;23.90;74.50;;;;;;5029409;28;20381;-72
2021/07/30 12:31:25;;;;;;;4.60;3.40;;;23.90;71.90;;;;;;5030317;28;20044;-72
2021/07/30 12:34:20;;;;;;;5.22;3.50;;;24.10;75.90;;;;;;5012830;28;20024;-72
2021/07/30 12:36:50;;;;;;;6.90;3.85;;;24.30;72.00;;;;;;5060329;28;20048;-71
2021/07/30 12:39:15;;;;;;;5.32;3.50;;;24.40;77.10;;;;;;5047291;28;20449;-71
2021/07/30 12:41:51;;;;;;;5.45;3.42;;;24.50;69.40;;;;;;5028388;28;20040;-71
2021/07/30 12:44:19;;;;;;;6.32;3.63;;;24.60;66.80;;;;;;5047369;28;20048;-71
2021/07/30 12:46:47;;;;;;;5.00;3.25;;;24.60;66.40;;;;;;5063127;28;20127;-71
2021/07/30 12:49:15;;;;;;;6.65;3.25;;;24.70;68.00;;;;;;5059696;28;20036;-72
2021/07/30 12:51:44;;;;;;;6.22;3.60;;;24.80;68.30;;;;;;5012904;28;20028;-72
2021/07/30 12:54:13;;;;;;;4.82;3.17;;;24.80;67.10;;;;;;5042208;28;20127;-72
2021/07/30 12:56:57;;;;;;;5.82;3.65;;;24.80;68.40;;;;;;5011005;28;20111;-73